sensor_id;sensor_type;location;lat;lon;timestamp;pressure;altitude;pressure_sealevel;temperature;humidity
44148;BME280;29810;55.848;37.368;2022-08-30T00:01:28;98379.13;;;19.33;86.96
44148;BME280;29810;55.848;37.368;2022-08-30T00:04:29;98377.44;;;19.32;87.80
44148;BME280;29810;55.848;37.368;2022-08-30T00:07:31;98378.28;;;19.32;87.06
44148;BME280;29810;55.848;37.368;2022-08-30T00:10:33;98362.41;;;19.32;87.07
44148;BME280;29810;55.848;37.368;2022-08-30T00:13:36;98371.22;;;19.33;87.01
44148;BME280;29810;55.848;37.368;2022-08-30T00:16:38;98380.91;;;19.32;87.21
44148;BME280;29810;55.848;37.368;2022-08-30T00:19:39;98381.56;;;19.25;87.55
44148;BME280;29810;55.848;37.368;2022-08-30T00:22:41;98374.19;;;19.18;87.81
44148;BME280;29810;55.848;37.368;2022-08-30T00:25:42;98378.19;;;19.13;88.19
44148;BME280;29810;55.848;37.368;2022-08-30T00:28:45;98385.28;;;19.12;88.27
44148;BME280;29810;55.848;37.368;2022-08-30T00:31:47;98389.84;;;19.10;88.54
44148;BME280;29810;55.848;37.368;2022-08-30T00:34:51;98394.56;;;19.07;88.92
44148;BME280;29810;55.848;37.368;2022-08-30T00:37:53;98398.44;;;19.02;89.24
44148;BME280;29810;55.848;37.368;2022-08-30T00:40:55;98394.44;;;19.08;89.01
44148;BME280;29810;55.848;37.368;2022-08-30T00:43:56;98397.78;;;19.10;88.78
44148;BME280;29810;55.848;37.368;2022-08-30T00:46:58;98390.94;;;19.08;88.70
44148;BME280;29810;55.848;37.368;2022-08-30T00:49:59;98399.31;;;19.13;88.66
44148;BME280;29810;55.848;37.368;2022-08-30T00:53:06;98389.59;;;19.13;88.58
44148;BME280;29810;55.848;37.368;2022-08-30T00:56:09;98383.09;;;19.17;88.46
44148;BME280;29810;55.848;37.368;2022-08-30T00:59:12;98391.16;;;19.16;88.18
44148;BME280;29810;55.848;37.368;2022-08-30T01:02:17;98372.72;;;19.05;88.50
44148;BME280;29810;55.848;37.368;2022-08-30T01:05:22;98380.78;;;19.03;88.94
44148;BME280;29810;55.848;37.368;2022-08-30T01:08:24;98385.22;;;19.02;88.87
44148;BME280;29810;55.848;37.368;2022-08-30T01:11:26;98374.94;;;18.99;88.81
44148;BME280;29810;55.848;37.368;2022-08-30T01:14:28;98374.75;;;18.91;89.09
44148;BME280;29810;55.848;37.368;2022-08-30T01:17:32;98372.72;;;18.83;89.24
44148;BME280;29810;55.848;37.368;2022-08-30T01:20:45;98378.25;;;18.80;89.71
44148;BME280;29810;55.848;37.368;2022-08-30T01:23:49;98368.22;;;18.74;90.64
44148;BME280;29810;55.848;37.368;2022-08-30T01:26:52;98368.88;;;18.66;90.29
44148;BME280;29810;55.848;37.368;2022-08-30T01:29:54;98357.72;;;18.63;90.52
44148;BME280;29810;55.848;37.368;2022-08-30T01:33:03;98372.00;;;18.60;90.64
44148;BME280;29810;55.848;37.368;2022-08-30T01:36:09;98369.50;;;18.59;91.43
44148;BME280;29810;55.848;37.368;2022-08-30T01:39:14;98358.00;;;18.60;91.18
44148;BME280;29810;55.848;37.368;2022-08-30T01:42:16;98365.62;;;18.63;90.97
44148;BME280;29810;55.848;37.368;2022-08-30T01:45:18;98362.41;;;18.59;91.01
44148;BME280;29810;55.848;37.368;2022-08-30T01:48:20;98363.78;;;18.53;90.96
44148;BME280;29810;55.848;37.368;2022-08-30T01:51:24;98361.78;;;18.46;91.17
44148;BME280;29810;55.848;37.368;2022-08-30T01:54:28;98364.22;;;18.37;91.92
44148;BME280;29810;55.848;37.368;2022-08-30T01:57:31;98358.84;;;18.28;92.27
44148;BME280;29810;55.848;37.368;2022-08-30T02:00:34;98361.63;;;18.26;92.68
44148;BME280;29810;55.848;37.368;2022-08-30T02:03:35;98359.59;;;18.18;93.04
44148;BME280;29810;55.848;37.368;2022-08-30T02:06:37;98352.91;;;18.14;93.41
44148;BME280;29810;55.848;37.368;2022-08-30T02:09:39;98348.84;;;18.10;93.48
44148;BME280;29810;55.848;37.368;2022-08-30T02:12:41;98347.16;;;18.09;93.70
44148;BME280;29810;55.848;37.368;2022-08-30T02:15:43;98346.44;;;18.07;93.48
44148;BME280;29810;55.848;37.368;2022-08-30T02:18:45;98342.16;;;18.06;93.59
44148;BME280;29810;55.848;37.368;2022-08-30T02:21:49;98349.47;;;18.02;93.80
44148;BME280;29810;55.848;37.368;2022-08-30T02:24:51;98347.19;;;17.98;93.91
44148;BME280;29810;55.848;37.368;2022-08-30T02:27:54;98364.72;;;17.99;94.24
44148;BME280;29810;55.848;37.368;2022-08-30T02:30:56;98366.75;;;17.95;94.17
44148;BME280;29810;55.848;37.368;2022-08-30T02:33:58;98356.69;;;17.89;94.34
44148;BME280;29810;55.848;37.368;2022-08-30T02:37:02;98363.59;;;17.90;94.54
44148;BME280;29810;55.848;37.368;2022-08-30T02:40:05;98373.09;;;17.93;94.56
44148;BME280;29810;55.848;37.368;2022-08-30T02:43:08;98376.66;;;17.92;94.31
44148;BME280;29810;55.848;37.368;2022-08-30T02:46:11;98369.28;;;17.85;94.42
44148;BME280;29810;55.848;37.368;2022-08-30T02:49:12;98375.97;;;17.90;94.72
44148;BME280;29810;55.848;37.368;2022-08-30T02:52:14;98378.59;;;17.90;94.46
44148;BME280;29810;55.848;37.368;2022-08-30T02:55:16;98382.06;;;17.90;94.39
44148;BME280;29810;55.848;37.368;2022-08-30T02:58:18;98378.37;;;17.93;94.42
44148;BME280;29810;55.848;37.368;2022-08-30T03:01:20;98371.31;;;17.93;94.28
44148;BME280;29810;55.848;37.368;2022-08-30T03:04:21;98379.94;;;17.95;94.16
44148;BME280;29810;55.848;37.368;2022-08-30T03:07:26;98379.56;;;18.00;94.03
44148;BME280;29810;55.848;37.368;2022-08-30T03:10:28;98382.41;;;18.08;93.57
44148;BME280;29810;55.848;37.368;2022-08-30T03:13:33;98378.19;;;18.17;93.10
44148;BME280;29810;55.848;37.368;2022-08-30T03:16:34;98374.09;;;18.24;92.60
44148;BME280;29810;55.848;37.368;2022-08-30T03:19:36;98375.09;;;18.44;91.79
44148;BME280;29810;55.848;37.368;2022-08-30T03:22:38;98370.09;;;18.62;90.77
44148;BME280;29810;55.848;37.368;2022-08-30T03:25:40;98362.84;;;18.85;89.27
44148;BME280;29810;55.848;37.368;2022-08-30T03:28:42;98375.69;;;19.11;88.06
44148;BME280;29810;55.848;37.368;2022-08-30T03:31:44;98371.22;;;19.33;86.70
44148;BME280;29810;55.848;37.368;2022-08-30T03:34:48;98369.84;;;19.48;85.34
44148;BME280;29810;55.848;37.368;2022-08-30T03:37:52;98383.25;;;19.57;84.22
44148;BME280;29810;55.848;37.368;2022-08-30T03:40:53;98380.31;;;19.60;83.76
44148;BME280;29810;55.848;37.368;2022-08-30T03:43:55;98390.28;;;19.77;83.12
44148;BME280;29810;55.848;37.368;2022-08-30T03:46:56;98392.13;;;19.87;82.15
44148;BME280;29810;55.848;37.368;2022-08-30T03:49:58;98390.75;;;19.92;81.64
44148;BME280;29810;55.848;37.368;2022-08-30T03:53:00;98392.13;;;19.87;81.63
44148;BME280;29810;55.848;37.368;2022-08-30T03:56:03;98393.34;;;19.82;81.29
44148;BME280;29810;55.848;37.368;2022-08-30T03:59:06;98396.66;;;19.75;81.79
44148;BME280;29810;55.848;37.368;2022-08-30T04:02:10;98393.59;;;19.79;81.66
44148;BME280;29810;55.848;37.368;2022-08-30T04:05:12;98396.44;;;19.88;81.18
44148;BME280;29810;55.848;37.368;2022-08-30T04:08:14;98392.25;;;19.85;80.84
44148;BME280;29810;55.848;37.368;2022-08-30T04:11:17;98400.22;;;19.95;80.58
44148;BME280;29810;55.848;37.368;2022-08-30T04:14:18;98388.13;;;20.22;79.37
44148;BME280;29810;55.848;37.368;2022-08-30T04:17:21;98389.25;;;21.35;74.41
44148;BME280;29810;55.848;37.368;2022-08-30T04:20:26;98386.41;;;22.20;70.04
44148;BME280;29810;55.848;37.368;2022-08-30T04:23:29;98395.94;;;22.59;68.25
44148;BME280;29810;55.848;37.368;2022-08-30T04:26:30;98407.75;;;22.64;67.50
44148;BME280;29810;55.848;37.368;2022-08-30T04:29:32;98399.69;;;22.02;69.31
44148;BME280;29810;55.848;37.368;2022-08-30T04:32:34;98396.56;;;21.61;71.20
44148;BME280;29810;55.848;37.368;2022-08-30T04:35:40;98397.56;;;21.50;71.88
44148;BME280;29810;55.848;37.368;2022-08-30T04:38:42;98401.66;;;21.34;72.34
44148;BME280;29810;55.848;37.368;2022-08-30T04:41:44;98399.09;;;21.53;71.75
44148;BME280;29810;55.848;37.368;2022-08-30T04:44:46;98384.72;;;22.65;67.58
44148;BME280;29810;55.848;37.368;2022-08-30T04:47:47;98380.00;;;24.40;61.72
44148;BME280;29810;55.848;37.368;2022-08-30T04:50:49;98370.69;;;25.89;56.39
44148;BME280;29810;55.848;37.368;2022-08-30T04:53:51;98362.28;;;26.70;53.16
44148;BME280;29810;55.848;37.368;2022-08-30T04:56:52;98371.75;;;27.26;51.10
44148;BME280;29810;55.848;37.368;2022-08-30T04:59:54;98371.88;;;27.33;50.42
44148;BME280;29810;55.848;37.368;2022-08-30T05:02:56;98369.13;;;28.07;48.47
44148;BME280;29810;55.848;37.368;2022-08-30T05:05:57;98362.19;;;28.63;47.09
44148;BME280;29810;55.848;37.368;2022-08-30T05:08:59;98351.16;;;27.86;47.90
44148;BME280;29810;55.848;37.368;2022-08-30T05:12:02;98373.28;;;27.43;49.30
44148;BME280;29810;55.848;37.368;2022-08-30T05:15:04;98377.87;;;26.43;51.80
44148;BME280;29810;55.848;37.368;2022-08-30T05:18:07;98384.50;;;24.97;55.97
44148;BME280;29810;55.848;37.368;2022-08-30T05:21:13;98389.88;;;23.88;59.10
44148;BME280;29810;55.848;37.368;2022-08-30T05:24:14;98391.63;;;23.10;62.40
44148;BME280;29810;55.848;37.368;2022-08-30T05:27:17;98390.81;;;22.83;63.54
44148;BME280;29810;55.848;37.368;2022-08-30T05:30:19;98389.16;;;22.64;64.20
44148;BME280;29810;55.848;37.368;2022-08-30T05:33:21;98390.84;;;22.47;65.10
44148;BME280;29810;55.848;37.368;2022-08-30T05:36:26;98365.41;;;22.27;65.57
44148;BME280;29810;55.848;37.368;2022-08-30T05:39:28;98384.25;;;22.52;65.45
44148;BME280;29810;55.848;37.368;2022-08-30T05:42:30;98384.87;;;22.45;65.65
44148;BME280;29810;55.848;37.368;2022-08-30T05:45:32;98362.56;;;22.38;65.48
44148;BME280;29810;55.848;37.368;2022-08-30T05:48:34;98386.28;;;22.58;65.51
44148;BME280;29810;55.848;37.368;2022-08-30T05:51:36;98391.13;;;22.80;65.02
44148;BME280;29810;55.848;37.368;2022-08-30T05:54:40;98394.09;;;23.99;60.78
44148;BME280;29810;55.848;37.368;2022-08-30T05:57:42;98372.69;;;25.87;54.31
44148;BME280;29810;55.848;37.368;2022-08-30T06:00:44;98378.44;;;27.30;50.18
44148;BME280;29810;55.848;37.368;2022-08-30T06:03:46;98379.06;;;27.62;48.57
44148;BME280;29810;55.848;37.368;2022-08-30T06:06:47;98355.19;;;26.39;50.95
44148;BME280;29810;55.848;37.368;2022-08-30T06:09:49;98392.13;;;25.17;54.55
44148;BME280;29810;55.848;37.368;2022-08-30T06:12:50;98392.41;;;23.98;58.03
44148;BME280;29810;55.848;37.368;2022-08-30T06:15:52;98389.66;;;23.73;59.31
44148;BME280;29810;55.848;37.368;2022-08-30T06:18:57;98397.03;;;23.45;60.32
44148;BME280;29810;55.848;37.368;2022-08-30T06:22:00;98386.91;;;23.48;60.29
44148;BME280;29810;55.848;37.368;2022-08-30T06:25:02;98381.72;;;23.47;60.05
44148;BME280;29810;55.848;37.368;2022-08-30T06:28:05;98405.06;;;23.27;60.62
44148;BME280;29810;55.848;37.368;2022-08-30T06:31:09;98403.13;;;23.37;60.88
44148;BME280;29810;55.848;37.368;2022-08-30T06:34:12;98409.63;;;23.43;60.12
44148;BME280;29810;55.848;37.368;2022-08-30T06:37:14;98398.38;;;23.49;60.22
44148;BME280;29810;55.848;37.368;2022-08-30T06:40:16;98394.72;;;23.50;60.03
44148;BME280;29810;55.848;37.368;2022-08-30T06:43:19;98394.81;;;23.40;60.31
44148;BME280;29810;55.848;37.368;2022-08-30T06:46:26;98387.09;;;23.21;60.47
44148;BME280;29810;55.848;37.368;2022-08-30T06:49:29;98399.16;;;23.41;60.31
44148;BME280;29810;55.848;37.368;2022-08-30T06:52:30;98398.31;;;23.75;59.32
44148;BME280;29810;55.848;37.368;2022-08-30T06:55:32;98397.06;;;23.96;58.57
44148;BME280;29810;55.848;37.368;2022-08-30T06:58:36;98388.47;;;24.19;57.95
44148;BME280;29810;55.848;37.368;2022-08-30T07:01:38;98354.66;;;24.11;57.15
44148;BME280;29810;55.848;37.368;2022-08-30T07:04:40;98390.16;;;24.36;57.04
44148;BME280;29810;55.848;37.368;2022-08-30T07:07:41;98379.19;;;24.31;56.80
44148;BME280;29810;55.848;37.368;2022-08-30T07:10:46;98388.97;;;24.30;56.20
44148;BME280;29810;55.848;37.368;2022-08-30T07:13:47;98380.47;;;24.02;56.67
44148;BME280;29810;55.848;37.368;2022-08-30T07:16:49;98390.44;;;24.08;56.84
44148;BME280;29810;55.848;37.368;2022-08-30T07:19:51;98403.16;;;24.31;56.77
44148;BME280;29810;55.848;37.368;2022-08-30T07:23:14;98392.84;;;24.36;56.68
44148;BME280;29810;55.848;37.368;2022-08-30T07:26:19;98401.63;;;24.45;56.53
44148;BME280;29810;55.848;37.368;2022-08-30T07:29:21;98402.38;;;24.63;56.02
44148;BME280;29810;55.848;37.368;2022-08-30T07:32:22;98390.16;;;24.53;55.98
44148;BME280;29810;55.848;37.368;2022-08-30T07:35:24;98390.50;;;24.58;56.13
44148;BME280;29810;55.848;37.368;2022-08-30T07:38:26;98401.66;;;24.53;55.55
44148;BME280;29810;55.848;37.368;2022-08-30T07:41:30;98400.66;;;24.46;55.39
44148;BME280;29810;55.848;37.368;2022-08-30T07:44:32;98397.84;;;24.72;55.02
44148;BME280;29810;55.848;37.368;2022-08-30T07:47:34;98392.16;;;24.92;54.54
44148;BME280;29810;55.848;37.368;2022-08-30T07:50:36;98396.84;;;24.90;54.70
44148;BME280;29810;55.848;37.368;2022-08-30T07:53:39;98399.16;;;24.93;54.51
44148;BME280;29810;55.848;37.368;2022-08-30T07:56:40;98399.31;;;25.00;54.49
44148;BME280;29810;55.848;37.368;2022-08-30T07:59:42;98396.69;;;24.91;54.72
44148;BME280;29810;55.848;37.368;2022-08-30T08:02:43;98397.81;;;24.97;54.52
44148;BME280;29810;55.848;37.368;2022-08-30T08:05:45;98397.62;;;25.15;54.11
44148;BME280;29810;55.848;37.368;2022-08-30T08:08:50;98397.59;;;25.23;53.81
44148;BME280;29810;55.848;37.368;2022-08-30T08:11:52;98393.25;;;25.30;52.93
44148;BME280;29810;55.848;37.368;2022-08-30T08:14:53;98393.41;;;25.45;52.50
44148;BME280;29810;55.848;37.368;2022-08-30T08:17:55;98404.72;;;25.56;52.11
44148;BME280;29810;55.848;37.368;2022-08-30T08:20:58;98401.97;;;25.72;51.71
44148;BME280;29810;55.848;37.368;2022-08-30T08:24:00;98380.31;;;25.67;51.13
44148;BME280;29810;55.848;37.368;2022-08-30T08:27:01;98398.91;;;25.84;50.90
44148;BME280;29810;55.848;37.368;2022-08-30T08:30:04;98386.47;;;25.76;50.80
44148;BME280;29810;55.848;37.368;2022-08-30T08:33:05;98383.59;;;25.77;50.35
44148;BME280;29810;55.848;37.368;2022-08-30T08:36:07;98388.03;;;25.93;49.64
44148;BME280;29810;55.848;37.368;2022-08-30T08:39:09;98368.97;;;26.05;49.14
44148;BME280;29810;55.848;37.368;2022-08-30T08:45:28;98391.66;;;26.32;48.04
44148;BME280;29810;55.848;37.368;2022-08-30T08:51:40;98391.41;;;26.42;47.93
44148;BME280;29810;55.848;37.368;2022-08-30T08:55:09;98387.97;;;26.33;47.70
44148;BME280;29810;55.848;37.368;2022-08-30T08:58:22;98395.56;;;26.21;48.33
44148;BME280;29810;55.848;37.368;2022-08-30T09:01:28;98405.41;;;26.21;47.93
44148;BME280;29810;55.848;37.368;2022-08-30T09:04:33;98406.72;;;26.25;47.13
44148;BME280;29810;55.848;37.368;2022-08-30T09:07:36;98395.75;;;26.20;47.29
44148;BME280;29810;55.848;37.368;2022-08-30T09:10:39;98404.09;;;26.63;47.38
44148;BME280;29810;55.848;37.368;2022-08-30T09:13:42;98401.37;;;26.48;46.72
44148;BME280;29810;55.848;37.368;2022-08-30T09:17:16;98402.28;;;26.64;46.18
44148;BME280;29810;55.848;37.368;2022-08-30T09:23:27;98398.66;;;26.56;45.08
44148;BME280;29810;55.848;37.368;2022-08-30T09:26:35;98405.78;;;26.41;44.58
44148;BME280;29810;55.848;37.368;2022-08-30T09:29:48;98399.50;;;26.34;45.15
44148;BME280;29810;55.848;37.368;2022-08-30T09:32:53;98405.53;;;26.51;44.84
44148;BME280;29810;55.848;37.368;2022-08-30T09:35:56;98408.56;;;26.48;43.00
44148;BME280;29810;55.848;37.368;2022-08-30T09:42:24;98401.31;;;26.56;42.71
44148;BME280;29810;55.848;37.368;2022-08-30T09:45:30;98404.06;;;26.48;42.29
44148;BME280;29810;55.848;37.368;2022-08-30T09:48:38;98401.63;;;26.61;42.41
44148;BME280;29810;55.848;37.368;2022-08-30T09:51:48;98399.84;;;26.77;42.60
44148;BME280;29810;55.848;37.368;2022-08-30T09:55:06;98378.84;;;26.74;42.44
44148;BME280;29810;55.848;37.368;2022-08-30T10:04:47;98391.69;;;27.08;41.60
44148;BME280;29810;55.848;37.368;2022-08-30T10:08:12;98397.03;;;27.08;41.52
44148;BME280;29810;55.848;37.368;2022-08-30T10:14:47;98395.84;;;27.26;40.28
44148;BME280;29810;55.848;37.368;2022-08-30T10:21:42;98394.75;;;27.20;40.93
44148;BME280;29810;55.848;37.368;2022-08-30T10:24:52;98387.09;;;27.32;40.55
44148;BME280;29810;55.848;37.368;2022-08-30T10:27:59;98398.81;;;27.16;40.28
44148;BME280;29810;55.848;37.368;2022-08-30T10:31:41;98396.50;;;27.28;40.30
44148;BME280;29810;55.848;37.368;2022-08-30T10:34:54;98400.22;;;27.57;39.87
44148;BME280;29810;55.848;37.368;2022-08-30T10:38:05;98388.91;;;27.17;39.95
44148;BME280;29810;55.848;37.368;2022-08-30T10:44:45;98398.34;;;27.13;40.10
44148;BME280;29810;55.848;37.368;2022-08-30T10:48:11;98399.72;;;27.23;39.80
44148;BME280;29810;55.848;37.368;2022-08-30T10:52:03;98379.25;;;27.31;39.81
44148;BME280;29810;55.848;37.368;2022-08-30T10:54:49;98387.22;;;27.39;39.07
44148;BME280;29810;55.848;37.368;2022-08-30T10:57:51;98394.47;;;27.60;40.19
44148;BME280;29810;55.848;37.368;2022-08-30T11:01:06;98382.78;;;27.46;41.04
44148;BME280;29810;55.848;37.368;2022-08-30T11:14:05;98378.34;;;27.68;40.57
44148;BME280;29810;55.848;37.368;2022-08-30T11:17:26;98388.47;;;27.73;40.74
44148;BME280;29810;55.848;37.368;2022-08-30T11:20:44;98391.19;;;28.09;40.78
44148;BME280;29810;55.848;37.368;2022-08-30T11:24:09;98379.63;;;27.94;40.43
44148;BME280;29810;55.848;37.368;2022-08-30T11:28:13;98384.75;;;28.04;39.93
44148;BME280;29810;55.848;37.368;2022-08-30T11:37:54;98391.44;;;28.15;39.37
44148;BME280;29810;55.848;37.368;2022-08-30T11:41:27;98392.44;;;28.14;38.77
44148;BME280;29810;55.848;37.368;2022-08-30T11:44:31;98385.84;;;28.31;38.47
44148;BME280;29810;55.848;37.368;2022-08-30T11:47:50;98317.34;;;27.85;37.69
44148;BME280;29810;55.848;37.368;2022-08-30T11:51:04;98379.53;;;28.39;37.97
44148;BME280;29810;55.848;37.368;2022-08-30T11:57:47;98384.31;;;28.22;38.17
44148;BME280;29810;55.848;37.368;2022-08-30T12:01:20;98374.16;;;28.17;38.35
44148;BME280;29810;55.848;37.368;2022-08-30T12:04:45;98364.72;;;28.21;38.05
44148;BME280;29810;55.848;37.368;2022-08-30T12:08:01;98357.38;;;28.30;37.47
44148;BME280;29810;55.848;37.368;2022-08-30T12:17:53;98372.06;;;28.56;34.56
44148;BME280;29810;55.848;37.368;2022-08-30T12:24:28;98370.78;;;29.02;34.37
44148;BME280;29810;55.848;37.368;2022-08-30T12:27:32;98366.12;;;28.89;35.34
44148;BME280;29810;55.848;37.368;2022-08-30T12:30:34;98359.03;;;29.03;35.39
44148;BME280;29810;55.848;37.368;2022-08-30T12:33:43;98368.38;;;29.14;35.12
44148;BME280;29810;55.848;37.368;2022-08-30T12:40:09;98361.56;;;28.61;34.43
44148;BME280;29810;55.848;37.368;2022-08-30T12:43:22;98366.84;;;28.26;35.47
44148;BME280;29810;55.848;37.368;2022-08-30T12:46:24;98363.19;;;28.34;35.70
44148;BME280;29810;55.848;37.368;2022-08-30T12:49:30;98345.59;;;28.24;36.15
44148;BME280;29810;55.848;37.368;2022-08-30T12:52:41;98356.66;;;28.21;35.68
44148;BME280;29810;55.848;37.368;2022-08-30T12:56:00;98347.87;;;27.91;35.51
44148;BME280;29810;55.848;37.368;2022-08-30T12:59:02;98361.81;;;28.01;35.92
44148;BME280;29810;55.848;37.368;2022-08-30T13:02:27;98344.06;;;28.00;34.66
44148;BME280;29810;55.848;37.368;2022-08-30T13:05:44;98346.69;;;28.08;35.30
44148;BME280;29810;55.848;37.368;2022-08-30T13:11:49;98347.87;;;27.91;36.67
44148;BME280;29810;55.848;37.368;2022-08-30T13:14:52;98340.88;;;27.90;36.96
44148;BME280;29810;55.848;37.368;2022-08-30T13:18:24;98334.56;;;27.98;36.85
44148;BME280;29810;55.848;37.368;2022-08-30T13:21:32;98331.59;;;28.29;36.05
44148;BME280;29810;55.848;37.368;2022-08-30T13:24:34;98328.03;;;28.22;37.14
44148;BME280;29810;55.848;37.368;2022-08-30T13:27:37;98325.47;;;28.14;36.75
44148;BME280;29810;55.848;37.368;2022-08-30T13:30:39;98329.56;;;28.09;36.92
44148;BME280;29810;55.848;37.368;2022-08-30T13:33:41;98315.09;;;28.04;36.09
44148;BME280;29810;55.848;37.368;2022-08-30T13:36:48;98325.13;;;28.17;34.79
44148;BME280;29810;55.848;37.368;2022-08-30T13:39:51;98317.94;;;28.24;33.51
44148;BME280;29810;55.848;37.368;2022-08-30T13:42:53;98324.34;;;28.23;33.10
44148;BME280;29810;55.848;37.368;2022-08-30T13:45:55;98323.97;;;28.26;33.35
44148;BME280;29810;55.848;37.368;2022-08-30T13:49:04;98318.59;;;28.26;33.10
44148;BME280;29810;55.848;37.368;2022-08-30T13:52:08;98316.06;;;28.18;32.56
44148;BME280;29810;55.848;37.368;2022-08-30T13:55:11;98319.09;;;28.15;32.78
44148;BME280;29810;55.848;37.368;2022-08-30T13:58:13;98317.13;;;28.02;33.25
44148;BME280;29810;55.848;37.368;2022-08-30T14:01:17;98320.59;;;27.81;33.75
44148;BME280;29810;55.848;37.368;2022-08-30T14:04:19;98320.53;;;27.74;33.33
44148;BME280;29810;55.848;37.368;2022-08-30T14:07:20;98313.06;;;27.69;33.06
44148;BME280;29810;55.848;37.368;2022-08-30T14:10:25;98308.06;;;27.66;33.18
44148;BME280;29810;55.848;37.368;2022-08-30T14:13:27;98314.72;;;27.70;33.17
44148;BME280;29810;55.848;37.368;2022-08-30T14:16:30;98305.19;;;27.83;32.73
44148;BME280;29810;55.848;37.368;2022-08-30T14:19:32;98294.72;;;27.88;32.57
44148;BME280;29810;55.848;37.368;2022-08-30T14:22:35;98292.78;;;27.82;32.90
44148;BME280;29810;55.848;37.368;2022-08-30T14:25:37;98288.53;;;27.87;32.96
44148;BME280;29810;55.848;37.368;2022-08-30T14:28:40;98284.63;;;27.90;33.22
44148;BME280;29810;55.848;37.368;2022-08-30T14:31:42;98282.34;;;27.87;33.08
44148;BME280;29810;55.848;37.368;2022-08-30T14:34:44;98287.25;;;27.83;33.55
44148;BME280;29810;55.848;37.368;2022-08-30T14:37:47;98286.91;;;27.71;33.68
44148;BME280;29810;55.848;37.368;2022-08-30T14:40:49;98288.44;;;27.59;33.93
44148;BME280;29810;55.848;37.368;2022-08-30T14:43:50;98288.00;;;27.40;33.55
44148;BME280;29810;55.848;37.368;2022-08-30T14:46:53;98285.81;;;27.29;33.73
44148;BME280;29810;55.848;37.368;2022-08-30T14:49:56;98288.28;;;27.16;34.12
44148;BME280;29810;55.848;37.368;2022-08-30T14:53:02;98269.03;;;26.90;38.00
44148;BME280;29810;55.848;37.368;2022-08-30T14:56:12;98287.94;;;27.04;36.88
44148;BME280;29810;55.848;37.368;2022-08-30T14:59:16;98280.16;;;26.64;40.15
44148;BME280;29810;55.848;37.368;2022-08-30T15:02:18;98287.97;;;26.51;40.58
44148;BME280;29810;55.848;37.368;2022-08-30T15:05:22;98296.00;;;26.51;40.62
44148;BME280;29810;55.848;37.368;2022-08-30T15:08:27;98291.38;;;26.59;40.56
44148;BME280;29810;55.848;37.368;2022-08-30T15:11:32;98282.16;;;26.62;40.53
44148;BME280;29810;55.848;37.368;2022-08-30T15:14:34;98290.47;;;26.67;40.86
44148;BME280;29810;55.848;37.368;2022-08-30T15:17:35;98287.34;;;26.64;39.83
44148;BME280;29810;55.848;37.368;2022-08-30T15:20:44;98282.62;;;26.51;39.15
44148;BME280;29810;55.848;37.368;2022-08-30T15:23:46;98293.56;;;26.41;39.12
44148;BME280;29810;55.848;37.368;2022-08-30T15:26:49;98288.00;;;26.27;39.51
44148;BME280;29810;55.848;37.368;2022-08-30T15:29:52;98270.47;;;26.10;39.90
44148;BME280;29810;55.848;37.368;2022-08-30T15:32:53;98290.66;;;26.12;40.25
44148;BME280;29810;55.848;37.368;2022-08-30T15:36:07;98293.16;;;26.06;40.59
44148;BME280;29810;55.848;37.368;2022-08-30T15:39:12;98207.50;;;25.46;40.96
44148;BME280;29810;55.848;37.368;2022-08-30T15:42:15;98298.44;;;25.91;41.35
44148;BME280;29810;55.848;37.368;2022-08-30T15:45:23;98287.34;;;25.79;41.82
44148;BME280;29810;55.848;37.368;2022-08-30T15:48:28;98291.06;;;25.70;42.17
44148;BME280;29810;55.848;37.368;2022-08-30T15:51:34;98288.78;;;25.58;42.32
44148;BME280;29810;55.848;37.368;2022-08-30T15:54:41;98287.34;;;25.48;42.80
44148;BME280;29810;55.848;37.368;2022-08-30T15:57:50;98282.41;;;25.36;43.01
44148;BME280;29810;55.848;37.368;2022-08-30T16:00:52;98289.06;;;25.32;43.43
44148;BME280;29810;55.848;37.368;2022-08-30T16:03:58;98289.94;;;25.24;43.60
44148;BME280;29810;55.848;37.368;2022-08-30T16:07:01;98297.56;;;25.27;42.82
44148;BME280;29810;55.848;37.368;2022-08-30T16:10:07;98285.69;;;25.07;44.07
44148;BME280;29810;55.848;37.368;2022-08-30T16:13:12;98286.84;;;25.04;44.45
44148;BME280;29810;55.848;37.368;2022-08-30T16:16:15;98284.50;;;25.01;44.42
44148;BME280;29810;55.848;37.368;2022-08-30T16:19:20;98284.50;;;25.01;44.62
44148;BME280;29810;55.848;37.368;2022-08-30T16:22:22;98284.69;;;25.00;44.64
44148;BME280;29810;55.848;37.368;2022-08-30T16:25:25;98281.38;;;24.98;44.84
44148;BME280;29810;55.848;37.368;2022-08-30T16:28:27;98257.56;;;24.88;44.81
44148;BME280;29810;55.848;37.368;2022-08-30T16:31:30;98281.69;;;25.03;44.84
44148;BME280;29810;55.848;37.368;2022-08-30T16:34:32;98280.03;;;25.02;44.96
44148;BME280;29810;55.848;37.368;2022-08-30T16:37:33;98283.03;;;24.99;45.18
44148;BME280;29810;55.848;37.368;2022-08-30T16:40:35;98287.53;;;24.98;45.21
44148;BME280;29810;55.848;37.368;2022-08-30T16:43:46;98293.53;;;24.92;45.48
44148;BME280;29810;55.848;37.368;2022-08-30T16:46:49;98286.37;;;24.84;45.66
44148;BME280;29810;55.848;37.368;2022-08-30T16:49:52;98278.06;;;24.79;45.74
44148;BME280;29810;55.848;37.368;2022-08-30T16:52:54;98274.94;;;24.75;45.99
44148;BME280;29810;55.848;37.368;2022-08-30T16:55:56;98241.81;;;24.53;46.21
44148;BME280;29810;55.848;37.368;2022-08-30T17:02:46;98277.25;;;24.62;46.98
44148;BME280;29810;55.848;37.368;2022-08-30T17:05:51;98273.47;;;24.48;47.40
44148;BME280;29810;55.848;37.368;2022-08-30T17:08:52;98268.97;;;24.40;47.88
44148;BME280;29810;55.848;37.368;2022-08-30T17:11:54;98276.13;;;24.31;48.35
44148;BME280;29810;55.848;37.368;2022-08-30T17:14:59;98284.28;;;24.30;48.72
44148;BME280;29810;55.848;37.368;2022-08-30T17:18:02;98277.31;;;24.29;49.35